Time;durP1;ratioP1;P1;durP2;ratioP2;P2;SDS_P1;SDS_P2;PMS_P1;PMS_P2;Temp;Humidity;BMP_temperature;BMP_pressure;BME280_temperature;BME280_humidity;BME280_pressure;Samples;Min_cycle;Max_cycle;Signal;HPM_P1;HPM_P2
2022/11/14 00:01:26;;;;;;;34.97;29.03;;;;;;;2.11;100.00;97210.13;4986695;28;20215;-67
2022/11/14 00:03:55;;;;;;;36.90;30.47;;;;;;;2.12;100.00;97194.31;4974368;28;20980;-68
2022/11/14 00:06:23;;;;;;;38.10;30.00;;;;;;;2.18;100.00;97198.19;4943710;28;20222;-68
2022/11/14 00:08:52;;;;;;;35.00;29.17;;;;;;;2.14;100.00;97197.59;5009913;28;20252;-68
2022/11/14 00:11:21;;;;;;;36.77;30.17;;;;;;;2.10;100.00;97200.63;5013077;28;20230;-68
2022/11/14 00:13:49;;;;;;;35.17;28.00;;;;;;;2.08;100.00;97198.13;4986507;28;20912;-69
2022/11/14 00:16:17;;;;;;;35.47;29.13;;;;;;;2.11;100.00;97197.06;5013741;28;20207;-69
2022/11/14 00:18:45;;;;;;;35.00;29.23;;;;;;;2.14;100.00;97192.38;5010501;28;21119;-69
2022/11/14 00:21:13;;;;;;;36.40;30.07;;;;;;;2.12;100.00;97194.31;4975399;28;20701;-69
2022/11/14 00:23:41;;;;;;;37.87;30.67;;;;;;;2.16;100.00;97200.91;5009451;28;20234;-68
2022/11/14 00:26:11;;;;;;;35.17;30.43;;;;;;;2.08;100.00;97203.38;5012940;28;20206;-69
2022/11/14 00:28:39;;;;;;;36.83;31.23;;;;;;;2.15;100.00;97198.44;4965906;28;20219;-68
2022/11/14 00:31:09;;;;;;;38.13;30.70;;;;;;;2.15;100.00;97196.66;5012968;28;20231;-68
2022/11/14 00:33:38;;;;;;;33.17;29.13;;;;;;;2.07;100.00;97190.41;4993164;28;20242;-69
2022/11/14 00:36:07;;;;;;;36.00;29.37;;;;;;;1.99;100.00;97197.13;5010732;28;20211;-68
2022/11/14 00:38:35;;;;;;;35.47;29.47;;;;;;;2.05;100.00;97206.25;4972136;28;20219;-68
2022/11/14 00:41:03;;;;;;;35.90;29.30;;;;;;;1.98;100.00;97203.31;4988299;28;20428;-68
2022/11/14 00:43:33;;;;;;;38.57;30.43;;;;;;;2.00;100.00;97206.63;4989109;28;20203;-68
2022/11/14 00:46:01;;;;;;;37.83;31.10;;;;;;;2.13;100.00;97216.06;4989877;28;20207;-68
2022/11/14 00:48:29;;;;;;;37.67;30.43;;;;;;;2.19;100.00;97215.53;5012268;28;20217;-68
2022/11/14 00:50:58;;;;;;;34.90;30.10;;;;;;;2.21;100.00;97211.00;5011905;28;20235;-68
2022/11/14 00:53:26;;;;;;;39.87;31.77;;;;;;;2.21;100.00;97205.78;4950593;28;20223;-68
2022/11/14 00:55:54;;;;;;;36.37;30.03;;;;;;;2.13;100.00;97197.75;5008290;28;22546;-68
2022/11/14 00:58:23;;;;;;;36.83;29.57;;;;;;;2.04;100.00;97204.59;4991882;28;20215;-68
2022/11/14 01:00:53;;;;;;;35.17;29.60;;;;;;;2.12;100.00;97198.72;4988543;28;20242;-68
2022/11/14 01:03:21;;;;;;;36.33;29.80;;;;;;;2.11;100.00;97204.91;4986112;28;21502;-67
2022/11/14 01:05:51;;;;;;;38.00;28.93;;;;;;;2.17;100.00;97199.16;4990589;28;20344;-67
2022/11/14 01:08:20;;;;;;;38.27;28.80;;;;;;;2.20;100.00;97192.81;4968115;28;21353;-68
2022/11/14 01:10:49;;;;;;;35.23;28.97;;;;;;;2.16;100.00;97195.69;5011171;28;20229;-67
2022/11/14 01:13:18;;;;;;;37.47;31.20;;;;;;;2.13;100.00;97190.72;4996775;28;20237;-67
2022/11/14 01:15:48;;;;;;;36.57;29.40;;;;;;;2.10;100.00;97179.72;4988237;28;20203;-67
2022/11/14 01:18:21;;;;;;;38.93;30.37;;;;;;;2.02;100.00;97181.19;5001590;28;20215;-69
2022/11/14 01:20:49;;;;;;;34.40;28.97;;;;;;;2.07;100.00;97188.63;5008535;28;20952;-68
2022/11/14 01:23:17;;;;;;;36.33;29.37;;;;;;;2.05;100.00;97187.94;5012739;28;20199;-68
2022/11/14 01:25:45;;;;;;;34.13;29.40;;;;;;;2.08;100.00;97179.84;4945350;28;20248;-67
2022/11/14 01:28:15;;;;;;;34.80;28.37;;;;;;;1.96;100.00;97176.47;5012642;28;20221;-67
2022/11/14 01:30:44;;;;;;;34.53;28.87;;;;;;;2.11;100.00;97171.72;4988584;28;20662;-62
2022/11/14 01:33:12;;;;;;;39.90;28.67;;;;;;;2.17;100.00;97175.63;4988849;28;20337;-67
2022/11/14 01:35:42;;;;;;;35.57;29.83;;;;;;;2.36;100.00;97177.47;5010626;28;20199;-67
2022/11/14 01:38:13;;;;;;;37.93;30.03;;;;;;;2.34;100.00;97168.09;4987545;28;20206;-67
2022/11/14 01:40:42;;;;;;;36.67;30.63;;;;;;;2.40;100.00;97159.72;4969891;28;20222;-67
2022/11/14 01:43:25;;;;;;;38.47;29.00;;;;;;;2.21;100.00;97156.09;5011254;28;20211;-67
2022/11/14 01:45:56;;;;;;;38.13;29.97;;;;;;;2.46;100.00;97169.66;4988869;28;20203;-67
2022/11/14 01:48:27;;;;;;;37.20;29.37;;;;;;;2.64;100.00;97153.31;5006399;28;20943;-67
2022/11/14 01:51:33;;;;;;;35.60;28.63;;;;;;;2.46;100.00;97151.34;5010357;28;20219;-66
2022/11/14 01:54:04;;;;;;;33.70;28.00;;;;;;;2.46;100.00;97152.19;5006174;28;20343;-68
2022/11/14 01:56:34;;;;;;;32.40;27.83;;;;;;;2.63;100.00;97149.88;4971372;28;20218;-69
2022/11/14 01:59:05;;;;;;;38.93;29.30;;;;;;;2.67;100.00;97153.91;5009542;28;20207;-68
2022/11/14 02:01:36;;;;;;;32.90;29.33;;;;;;;2.56;100.00;97144.38;4992504;28;20217;-67
2022/11/14 02:04:06;;;;;;;35.50;29.37;;;;;;;2.45;100.00;97147.06;5011005;28;20421;-68
2022/11/14 02:06:39;;;;;;;34.10;27.93;;;;;;;2.31;100.00;97135.22;4979809;28;21122;-67
2022/11/14 02:09:09;;;;;;;34.27;30.60;;;;;;;2.30;100.00;97133.56;5012601;28;20268;-68
2022/11/14 02:11:41;;;;;;;33.17;28.33;;;;;;;2.26;100.00;97140.00;4947694;28;20216;-67
2022/11/14 02:14:09;;;;;;;33.87;27.60;;;;;;;2.14;100.00;97140.09;5010770;28;20269;-67
2022/11/14 02:16:39;;;;;;;32.70;28.13;;;;;;;2.08;100.00;97124.94;5010427;28;20764;-67
2022/11/14 02:19:07;;;;;;;32.17;27.07;;;;;;;2.10;100.00;97132.69;5001013;28;20256;-67
2022/11/14 02:21:37;;;;;;;36.63;29.10;;;;;;;2.10;100.00;97146.56;5010406;28;20954;-68
2022/11/14 02:24:09;;;;;;;31.60;27.93;;;;;;;2.14;100.00;97129.66;5011113;28;20650;-68
2022/11/14 02:26:39;;;;;;;34.63;29.00;;;;;;;2.12;100.00;97131.56;4963896;28;20217;-67
2022/11/14 02:29:09;;;;;;;38.57;30.03;;;;;;;2.09;100.00;97131.84;5004458;28;20603;-66
2022/11/14 02:31:38;;;;;;;37.27;29.03;;;;;;;2.08;100.00;97135.41;5008511;28;20213;-69
2022/11/14 02:34:06;;;;;;;35.17;28.23;;;;;;;2.05;100.00;97129.59;5013388;28;21378;-69
2022/11/14 02:36:35;;;;;;;31.47;28.07;;;;;;;1.97;100.00;97138.13;5009683;28;20252;-69
2022/11/14 02:39:04;;;;;;;32.87;26.47;;;;;;;1.80;100.00;97134.31;5010943;28;20205;-69
2022/11/14 02:41:33;;;;;;;35.20;26.50;;;;;;;1.72;100.00;97130.56;4971052;28;20888;-69
2022/11/14 02:44:02;;;;;;;31.87;25.90;;;;;;;1.84;100.00;97120.03;4994087;28;20211;-69
2022/11/14 02:46:30;;;;;;;35.37;27.93;;;;;;;1.87;100.00;97125.81;5010608;28;20215;-68
2022/11/14 02:48:58;;;;;;;33.33;28.13;;;;;;;1.88;100.00;97113.59;5008833;28;21342;-68
2022/11/14 02:51:27;;;;;;;35.57;28.27;;;;;;;1.79;100.00;97112.59;5011544;28;20217;-68
2022/11/14 02:53:55;;;;;;;36.37;28.73;;;;;;;1.76;100.00;97105.00;5008222;28;21416;-69
2022/11/14 02:56:24;;;;;;;36.50;28.27;;;;;;;1.75;100.00;97103.34;4987685;28;20237;-68
2022/11/14 02:58:52;;;;;;;35.17;27.47;;;;;;;1.66;100.00;97106.75;4950202;28;20217;-69
2022/11/14 03:01:21;;;;;;;29.77;26.43;;;;;;;1.69;100.00;97099.47;5009586;28;22537;-69
2022/11/14 03:03:49;;;;;;;31.67;27.10;;;;;;;1.62;100.00;97090.50;5008315;28;20207;-69
2022/11/14 03:06:17;;;;;;;35.80;28.40;;;;;;;1.56;100.00;97093.63;4986527;28;20215;-68
2022/11/14 03:08:45;;;;;;;35.43;28.13;;;;;;;1.53;100.00;97083.44;5009029;28;20607;-69
2022/11/14 03:11:13;;;;;;;37.30;29.23;;;;;;;1.52;100.00;97087.00;5010870;28;20231;-68
2022/11/14 03:13:44;;;;;;;31.67;27.23;;;;;;;1.45;100.00;97089.31;4955301;28;20226;-66
2022/11/14 03:16:14;;;;;;;34.27;27.27;;;;;;;1.37;100.00;97086.50;5010020;28;20202;-70
2022/11/14 03:18:42;;;;;;;33.30;26.50;;;;;;;1.25;100.00;97089.19;5008541;28;20211;-69
2022/11/14 03:21:12;;;;;;;30.83;27.53;;;;;;;1.25;100.00;97093.59;5011411;28;20737;-68
2022/11/14 03:23:41;;;;;;;31.77;26.63;;;;;;;1.22;100.00;97089.47;5010748;28;20218;-69
2022/11/14 03:26:10;;;;;;;33.30;26.27;;;;;;;1.24;100.00;97091.94;5014701;28;20351;-69
2022/11/14 03:28:40;;;;;;;35.03;26.97;;;;;;;1.23;100.00;97085.06;4965053;28;20207;-68
2022/11/14 03:31:12;;;;;;;31.80;25.70;;;;;;;1.23;100.00;97087.66;5011940;28;20234;-69
2022/11/14 03:33:40;;;;;;;34.23;28.47;;;;;;;1.19;100.00;97081.88;5010878;28;20219;-68
2022/11/14 03:36:09;;;;;;;31.27;26.97;;;;;;;1.07;100.00;97090.72;5021028;28;20218;-68
2022/11/14 03:38:37;;;;;;;32.30;26.77;;;;;;;1.03;100.00;97095.38;5013790;28;20215;-68
2022/11/14 03:41:05;;;;;;;31.07;27.63;;;;;;;1.00;100.00;97104.25;5014245;28;20235;-68
2022/11/14 03:43:35;;;;;;;33.47;25.57;;;;;;;0.97;100.00;97101.91;5004228;28;20903;-68
2022/11/14 03:46:04;;;;;;;32.07;25.57;;;;;;;0.93;100.00;97091.84;4967600;28;20230;-68
2022/11/14 03:48:33;;;;;;;32.03;25.77;;;;;;;0.91;100.00;97101.56;5011890;28;21198;-68
2022/11/14 03:51:01;;;;;;;30.30;25.23;;;;;;;0.85;100.00;97101.13;5014513;28;21076;-68
2022/11/14 03:53:30;;;;;;;28.40;24.13;;;;;;;0.80;100.00;97090.25;5013937;28;20228;-68
2022/11/14 03:55:58;;;;;;;27.93;24.93;;;;;;;0.79;100.00;97093.81;5012900;28;20937;-68
2022/11/14 03:58:26;;;;;;;31.80;25.50;;;;;;;0.77;100.00;97092.28;5013538;28;20207;-67
2022/11/14 04:00:55;;;;;;;30.73;25.93;;;;;;;0.72;100.00;97087.44;4955770;28;20282;-68
2022/11/14 04:03:23;;;;;;;26.93;24.00;;;;;;;0.68;100.00;97086.03;5012883;28;20199;-67
2022/11/14 04:05:53;;;;;;;29.97;23.97;;;;;;;0.66;100.00;97082.72;5012206;28;20199;-66
2022/11/14 04:08:21;;;;;;;30.27;25.13;;;;;;;0.67;100.00;97086.97;5014220;28;20690;-67
2022/11/14 04:10:49;;;;;;;31.80;24.30;;;;;;;0.61;100.00;97088.28;4984158;28;20697;-67
2022/11/14 04:13:18;;;;;;;31.30;26.17;;;;;;;0.67;100.00;97087.78;4988338;28;20207;-67
2022/11/14 04:15:46;;;;;;;32.83;26.20;;;;;;;0.64;100.00;97090.66;4950842;28;20862;-67
2022/11/14 04:18:14;;;;;;;31.37;24.93;;;;;;;0.61;100.00;97090.09;4966546;28;20832;-67
2022/11/14 04:20:42;;;;;;;31.93;26.50;;;;;;;0.59;100.00;97094.59;4989991;28;20227;-67
2022/11/14 04:23:12;;;;;;;33.23;25.23;;;;;;;0.56;100.00;97085.22;4986871;28;20207;-67
2022/11/14 04:25:40;;;;;;;30.47;25.33;;;;;;;0.61;100.00;97093.50;4991398;28;20203;-68
2022/11/14 04:28:08;;;;;;;31.87;25.43;;;;;;;0.60;100.00;97097.06;5011363;28;21442;-68
2022/11/14 04:30:36;;;;;;;29.83;24.80;;;;;;;0.54;100.00;97098.38;4999718;28;20227;-67
2022/11/14 04:33:05;;;;;;;28.30;22.73;;;;;;;0.48;100.00;97098.88;4982508;28;21147;-68
2022/11/14 04:35:34;;;;;;;31.73;24.50;;;;;;;0.37;100.00;97107.53;4965736;28;20329;-65
2022/11/14 04:38:02;;;;;;;28.17;24.20;;;;;;;0.34;100.00;97106.97;5014469;28;20210;-66
2022/11/14 04:40:32;;;;;;;27.73;22.93;;;;;;;0.27;100.00;97117.88;4987715;28;20241;-68
2022/11/14 04:43:00;;;;;;;31.37;25.60;;;;;;;0.19;100.00;97116.81;5014135;28;20206;-67
2022/11/14 04:45:28;;;;;;;31.33;24.53;;;;;;;0.14;100.00;97111.97;5010811;28;20195;-67
2022/11/14 04:47:57;;;;;;;31.27;24.40;;;;;;;0.11;100.00;97113.06;5013272;28;20210;-68
2022/11/14 04:50:25;;;;;;;30.07;23.57;;;;;;;0.04;100.00;97114.47;4947994;28;20237;-69
2022/11/14 04:52:53;;;;;;;30.20;24.33;;;;;;;-0.06;100.00;97103.94;5013779;28;20210;-68
2022/11/14 04:55:21;;;;;;;27.53;23.63;;;;;;;-0.12;100.00;97103.56;4992967;28;20234;-68
2022/11/14 04:57:55;;;;;;;29.27;23.83;;;;;;;-0.17;100.00;97093.53;4992347;28;20211;-67
2022/11/14 05:00:24;;;;;;;26.40;23.13;;;;;;;-0.19;100.00;97101.44;5001128;28;20860;-67
2022/11/14 05:02:52;;;;;;;25.60;22.90;;;;;;;-0.22;100.00;97098.25;5011305;28;20203;-68
2022/11/14 05:05:21;;;;;;;26.53;23.40;;;;;;;-0.19;100.00;97098.00;4946883;28;20211;-68
2022/11/14 05:07:49;;;;;;;27.87;23.10;;;;;;;-0.29;100.00;97105.72;5012967;28;20211;-67
2022/11/14 05:10:17;;;;;;;25.33;22.23;;;;;;;-0.36;100.00;97113.16;5008823;28;20517;-67
2022/11/14 05:12:45;;;;;;;25.20;22.07;;;;;;;-0.35;100.00;97108.78;4990237;28;20223;-69
2022/11/14 05:15:15;;;;;;;27.00;22.73;;;;;;;-0.44;100.00;97116.34;5011008;28;20224;-67
2022/11/14 05:17:43;;;;;;;30.63;23.37;;;;;;;-0.45;100.00;97117.28;5012407;28;20208;-68
2022/11/14 05:20:12;;;;;;;25.70;21.70;;;;;;;-0.47;100.00;97126.16;4968530;28;20311;-68
2022/11/14 05:22:41;;;;;;;26.07;23.07;;;;;;;-0.44;100.00;97121.53;5000691;28;20210;-68
2022/11/14 05:25:10;;;;;;;29.83;23.73;;;;;;;-0.46;100.00;97126.03;5011659;28;21193;-67
2022/11/14 05:27:38;;;;;;;25.77;22.80;;;;;;;-0.43;100.00;97117.19;4968997;28;20838;-69
2022/11/14 05:30:07;;;;;;;30.60;23.83;;;;;;;-0.41;100.00;97125.69;5012412;28;20233;-68
2022/11/14 05:32:37;;;;;;;28.43;23.27;;;;;;;-0.40;100.00;97109.13;5010281;28;20705;-70
2022/11/14 05:35:07;;;;;;;30.17;24.10;;;;;;;-0.34;100.00;97108.66;5005033;28;20227;-68
2022/11/14 05:37:35;;;;;;;30.47;26.17;;;;;;;-0.18;100.00;97104.91;4971835;28;20217;-68
2022/11/14 05:40:04;;;;;;;30.83;25.17;;;;;;;-0.17;100.00;97103.94;5012056;28;20246;-68
2022/11/14 05:42:32;;;;;;;28.47;24.80;;;;;;;-0.22;100.00;97104.28;4989506;28;21290;-68
2022/11/14 05:45:00;;;;;;;28.87;24.43;;;;;;;-0.22;100.00;97112.09;5011839;28;20199;-68
2022/11/14 05:47:29;;;;;;;31.83;26.33;;;;;;;-0.27;100.00;97116.00;5007425;28;20465;-67
2022/11/14 05:49:58;;;;;;;30.27;24.50;;;;;;;-0.28;100.00;97114.34;5012202;28;20905;-67
2022/11/14 05:52:26;;;;;;;35.77;28.40;;;;;;;-0.32;100.00;97121.56;4954659;28;20212;-66
2022/11/14 05:54:55;;;;;;;31.97;26.10;;;;;;;-0.35;100.00;97122.63;5011595;28;20812;-66
2022/11/14 05:57:23;;;;;;;26.83;23.73;;;;;;;-0.37;100.00;97118.50;5008833;28;20781;-67
2022/11/14 05:59:51;;;;;;;31.97;25.33;;;;;;;-0.44;100.00;97105.94;5013713;28;20272;-69
2022/11/14 06:02:19;;;;;;;30.77;24.97;;;;;;;-0.40;100.00;97100.47;5008072;28;20211;-67
2022/11/14 06:04:47;;;;;;;32.53;26.80;;;;;;;-0.38;100.00;97107.25;5011592;28;20195;-68
2022/11/14 06:07:17;;;;;;;31.00;26.00;;;;;;;-0.15;100.00;97113.28;4961518;28;20211;-68
2022/11/14 06:09:47;;;;;;;34.57;26.17;;;;;;;-0.05;100.00;97113.41;5009591;28;20229;-68
2022/11/14 06:12:15;;;;;;;32.70;26.23;;;;;;;-0.01;100.00;97116.59;5010327;28;20199;-68
2022/11/14 06:14:44;;;;;;;38.80;27.70;;;;;;;0.02;100.00;97119.00;5011065;28;20226;-67
2022/11/14 06:17:12;;;;;;;30.17;25.63;;;;;;;-0.05;100.00;97123.84;5010768;28;20214;-67
2022/11/14 06:19:40;;;;;;;32.90;26.00;;;;;;;-0.08;100.00;97118.88;5010156;28;21015;-67
2022/11/14 06:22:09;;;;;;;32.80;25.93;;;;;;;-0.09;100.00;97117.19;4969256;28;20510;-68
2022/11/14 06:24:39;;;;;;;31.50;25.00;;;;;;;-0.12;100.00;97117.44;4998006;28;20379;-65
2022/11/14 06:27:07;;;;;;;35.00;26.53;;;;;;;-0.17;100.00;97119.56;4928127;28;20223;-68
2022/11/14 06:29:35;;;;;;;27.70;23.27;;;;;;;-0.18;100.00;97128.34;5006563;28;20250;-68
2022/11/14 06:32:03;;;;;;;31.33;24.90;;;;;;;-0.15;100.00;97141.94;5011524;28;20203;-68
2022/11/14 06:34:31;;;;;;;33.40;27.07;;;;;;;-0.10;100.00;97145.97;4985627;28;20226;-68
2022/11/14 06:36:59;;;;;;;37.40;29.53;;;;;;;-0.02;100.00;97154.84;5011012;28;20221;-69
2022/11/14 06:39:28;;;;;;;36.00;29.63;;;;;;;-0.01;100.00;97159.13;5006710;28;20224;-68
2022/11/14 06:41:57;;;;;;;34.23;26.70;;;;;;;-0.06;100.00;97163.84;4964478;28;20418;-67
2022/11/14 06:44:25;;;;;;;32.97;27.07;;;;;;;-0.06;100.00;97168.22;5005957;28;20199;-67
2022/11/14 06:46:58;;;;;;;31.20;26.00;;;;;;;-0.05;100.00;97170.72;5009669;28;20812;-69
2022/11/14 06:49:26;;;;;;;34.83;26.20;;;;;;;0.05;100.00;97170.84;4983931;28;20223;-67
2022/11/14 06:51:55;;;;;;;35.30;27.87;;;;;;;0.03;100.00;97167.53;5008383;28;20542;-68
2022/11/14 06:54:23;;;;;;;37.10;28.13;;;;;;;-0.10;100.00;97165.03;5008799;28;20212;-68
2022/11/14 06:56:51;;;;;;;35.37;27.10;;;;;;;-0.14;100.00;97153.19;4959569;28;22440;-68
2022/11/14 06:59:21;;;;;;;37.17;28.40;;;;;;;-0.23;100.00;97157.31;5011192;28;20211;-68
2022/11/14 07:01:49;;;;;;;35.30;27.73;;;;;;;-0.30;100.00;97151.75;5009287;28;20212;-68
2022/11/14 07:04:17;;;;;;;33.30;26.77;;;;;;;-0.22;100.00;97150.31;5011554;28;20507;-67
2022/11/14 07:06:45;;;;;;;33.80;27.37;;;;;;;-0.18;100.00;97154.38;4989288;28;20203;-69
2022/11/14 07:09:14;;;;;;;34.17;26.37;;;;;;;-0.07;100.00;97151.78;5012229;28;20211;-67
2022/11/14 07:11:44;;;;;;;34.77;26.97;;;;;;;-0.01;100.00;97151.31;5008526;28;20956;-68
2022/11/14 07:14:13;;;;;;;36.17;25.43;;;;;;;0.09;100.00;97145.38;4967064;28;20215;-68
2022/11/14 07:16:42;;;;;;;39.40;27.47;;;;;;;0.12;100.00;97145.97;5008039;28;20313;-69
2022/11/14 07:19:11;;;;;;;37.50;28.57;;;;;;;0.18;100.00;97151.66;5010974;28;20972;-69
2022/11/14 07:21:39;;;;;;;35.23;26.97;;;;;;;0.22;100.00;97151.31;4987029;28;20638;-69
2022/11/14 07:24:08;;;;;;;35.17;28.17;;;;;;;0.30;100.00;97149.88;5011640;28;20203;-68
2022/11/14 07:26:36;;;;;;;34.87;25.57;;;;;;;0.36;100.00;97141.56;5009059;28;20207;-68
2022/11/14 07:29:04;;;;;;;37.90;27.43;;;;;;;0.36;100.00;97147.59;4966229;28;20226;-67
2022/11/14 07:31:32;;;;;;;36.03;28.10;;;;;;;0.42;100.00;97146.28;5008168;28;20211;-67
2022/11/14 07:34:02;;;;;;;38.20;28.10;;;;;;;0.45;100.00;97156.47;5010699;28;20551;-69
2022/11/14 07:36:30;;;;;;;43.17;31.67;;;;;;;0.54;100.00;97147.91;4988478;28;20223;-68
2022/11/14 07:38:58;;;;;;;38.57;30.27;;;;;;;0.61;100.00;97137.03;5011236;28;20857;-67
2022/11/14 07:41:26;;;;;;;41.83;32.90;;;;;;;0.72;100.00;97145.63;5011101;28;20230;-68
2022/11/14 07:43:54;;;;;;;48.43;32.07;;;;;;;0.78;100.00;97139.09;4965651;28;23229;-67
2022/11/14 07:46:23;;;;;;;40.00;29.50;;;;;;;0.84;100.00;97141.22;5012119;28;20869;-67
2022/11/14 07:48:51;;;;;;;36.57;27.93;;;;;;;0.99;100.00;97153.97;5010551;28;20332;-68
2022/11/14 07:51:23;;;;;;;37.50;26.87;;;;;;;1.05;100.00;97160.47;5012047;28;20238;-67
2022/11/14 07:53:52;;;;;;;35.53;28.23;;;;;;;1.11;100.00;97166.03;4996777;28;20415;-70
2022/11/14 07:56:21;;;;;;;34.63;27.40;;;;;;;1.14;100.00;97155.34;5010328;28;20228;-70
2022/11/14 07:58:49;;;;;;;31.23;25.93;;;;;;;1.28;100.00;97158.59;5010407;28;20650;-68
2022/11/14 08:01:17;;;;;;;35.63;27.53;;;;;;;1.33;100.00;97153.00;4966249;28;21066;-67
2022/11/14 08:03:45;;;;;;;32.87;25.60;;;;;;;1.34;100.00;97147.66;5008520;28;22325;-68
2022/11/14 08:06:15;;;;;;;30.83;24.97;;;;;;;1.38;100.00;97146.44;5011943;28;20645;-68
2022/11/14 08:08:45;;;;;;;32.37;26.40;;;;;;;1.52;100.00;97139.25;4988101;28;20412;-68
2022/11/14 08:11:13;;;;;;;32.47;27.17;;;;;;;1.55;100.00;97139.00;5011544;28;20223;-68
2022/11/14 08:14:01;;;;;;;34.93;27.93;;;;;;;1.66;100.00;97133.69;5011155;28;20293;-68
2022/11/14 08:16:29;;;;;;;32.77;25.60;;;;;;;1.71;100.00;97136.75;4961109;28;20353;-68
2022/11/14 08:18:57;;;;;;;32.77;25.60;;;;;;;1.82;100.00;97137.63;5012091;28;20395;-68
2022/11/14 08:21:26;;;;;;;29.03;25.77;;;;;;;1.96;100.00;97152.16;5002786;28;20223;-67
2022/11/14 08:23:56;;;;;;;28.53;25.47;;;;;;;2.09;100.00;97146.69;5003361;28;20210;-68
2022/11/14 08:26:24;;;;;;;31.20;26.37;;;;;;;2.21;100.00;97131.72;5012638;28;20328;-68
2022/11/14 08:28:58;;;;;;;34.67;27.93;;;;;;;2.38;100.00;97125.03;5014922;28;20211;-68
2022/11/14 08:31:27;;;;;;;33.67;28.80;;;;;;;2.49;100.00;97117.09;4978675;28;20232;-67
2022/11/14 08:33:55;;;;;;;37.10;28.83;;;;;;;2.60;100.00;97121.38;4958052;28;20208;-68
2022/11/14 08:36:23;;;;;;;29.77;26.13;;;;;;;2.66;100.00;97110.38;5010377;28;20222;-68
2022/11/14 08:38:51;;;;;;;31.90;25.87;;;;;;;2.72;100.00;97106.38;4999448;28;20211;-68
2022/11/14 08:41:29;;;;;;;30.80;25.70;;;;;;;2.84;100.00;97115.78;5012450;28;22013;-68
2022/11/14 08:43:57;;;;;;;29.17;24.93;;;;;;;2.91;100.00;97121.25;5010944;28;20202;-68
2022/11/14 08:46:25;;;;;;;28.73;25.70;;;;;;;3.03;100.00;97128.03;5012893;28;20205;-68
2022/11/14 08:48:53;;;;;;;29.07;25.90;;;;;;;3.12;100.00;97136.84;4978440;28;20218;-69
2022/11/14 08:51:22;;;;;;;31.33;27.07;;;;;;;3.27;100.00;97145.09;5011839;28;20230;-68
2022/11/14 08:53:51;;;;;;;28.20;25.30;;;;;;;3.42;100.00;97147.31;4999145;28;20211;-68
2022/11/14 08:56:19;;;;;;;26.30;23.37;;;;;;;3.55;100.00;97137.34;5004152;28;20303;-68
2022/11/14 08:58:49;;;;;;;26.53;23.73;;;;;;;3.70;100.00;97140.38;5010000;28;20697;-68
2022/11/14 09:01:17;;;;;;;28.00;25.00;;;;;;;3.76;100.00;97133.72;5009098;28;20238;-68
2022/11/14 09:03:46;;;;;;;25.93;23.23;;;;;;;3.87;100.00;97132.72;4999892;28;20202;-67
2022/11/14 09:06:14;;;;;;;25.00;22.43;;;;;;;4.05;100.00;97138.88;4994919;28;20211;-67
2022/11/14 09:08:43;;;;;;;23.97;21.47;;;;;;;4.04;100.00;97136.38;5011889;28;20624;-67
2022/11/14 09:11:11;;;;;;;22.83;20.53;;;;;;;4.13;100.00;97138.16;4990248;28;20233;-67
2022/11/14 09:13:45;;;;;;;24.87;22.33;;;;;;;4.41;100.00;97142.59;5012091;28;20853;-67
2022/11/14 09:16:15;;;;;;;23.40;21.03;;;;;;;4.56;100.00;97149.00;5012435;28;20425;-65
2022/11/14 09:18:44;;;;;;;23.70;21.40;;;;;;;4.59;100.00;97143.44;5002083;28;20508;-65
2022/11/14 09:21:12;;;;;;;22.40;20.40;;;;;;;4.60;100.00;97139.03;4987517;28;20236;-65
2022/11/14 09:23:40;;;;;;;21.43;19.37;;;;;;;4.68;100.00;97130.41;5012223;28;20214;-67
2022/11/14 09:26:10;;;;;;;20.47;18.57;;;;;;;4.76;100.00;97127.91;4986973;28;20562;-67
2022/11/14 09:28:38;;;;;;;20.33;18.43;;;;;;;4.89;100.00;97133.59;5011226;28;20210;-68
2022/11/14 09:31:08;;;;;;;20.47;18.37;;;;;;;4.96;100.00;97130.38;5009934;28;21041;-69
2022/11/14 09:33:38;;;;;;;21.97;19.83;;;;;;;5.09;100.00;97128.19;5008126;28;20211;-67
2022/11/14 09:36:09;;;;;;;21.30;19.17;;;;;;;5.25;100.00;97121.44;4977890;28;20214;-67
2022/11/14 09:38:37;;;;;;;20.67;18.77;;;;;;;5.35;100.00;97125.63;5007412;28;20215;-67
2022/11/14 09:41:23;;;;;;;22.47;20.43;;;;;;;5.52;100.00;97127.56;5011554;28;20952;-68
2022/11/14 09:44:18;;;;;;;21.40;19.33;;;;;;;5.72;100.00;97128.19;4996220;28;20214;-66
2022/11/14 09:46:49;;;;;;;20.70;18.60;;;;;;;5.82;100.00;97118.38;5007841;28;20202;-68
2022/11/14 09:49:26;;;;;;;21.27;19.17;;;;;;;5.92;100.00;97116.47;5011348;28;20207;-68
2022/11/14 09:52:00;;;;;;;21.03;19.13;;;;;;;6.08;100.00;97118.38;4978817;28;20215;-67
2022/11/14 09:54:32;;;;;;;18.93;17.17;;;;;;;6.13;100.00;97107.41;5010348;28;20214;-69
2022/11/14 09:57:01;;;;;;;19.77;18.00;;;;;;;6.29;100.00;97109.28;4992032;28;20227;-68
2022/11/14 09:59:29;;;;;;;20.07;18.23;;;;;;;6.37;100.00;97101.41;5008562;28;20241;-67
2022/11/14 10:02:01;;;;;;;19.43;17.53;;;;;;;6.52;100.00;97103.44;5010884;28;20195;-69
2022/11/14 10:04:44;;;;;;;20.17;18.27;;;;;;;6.63;100.00;97105.78;5009926;28;20210;-69
2022/11/14 10:07:21;;;;;;;17.70;15.90;;;;;;;6.78;100.00;97102.50;4982058;28;20210;-69
2022/11/14 10:09:59;;;;;;;19.33;17.63;;;;;;;6.88;100.00;97105.00;5010999;28;20230;-69
2022/11/14 10:12:39;;;;;;;17.63;16.03;;;;;;;6.94;100.00;97097.25;5002940;28;20355;-70
2022/11/14 10:15:21;;;;;;;18.43;16.63;;;;;;;7.00;100.00;97093.16;5012891;28;20277;-69
2022/11/14 10:17:57;;;;;;;18.43;16.63;;;;;;;7.15;100.00;97092.50;5010230;28;20218;-69
2022/11/14 10:20:33;;;;;;;19.37;17.47;;;;;;;7.24;100.00;97092.34;5009491;28;20231;-68
2022/11/14 10:23:12;;;;;;;19.23;17.47;;;;;;;7.39;100.00;97089.06;4978872;28;20206;-69
2022/11/14 10:25:49;;;;;;;18.37;16.60;;;;;;;7.50;100.00;97080.78;5006615;28;20203;-69
2022/11/14 10:28:31;;;;;;;17.63;16.03;;;;;;;7.61;100.00;97074.34;4989376;28;21773;-69
2022/11/14 10:31:05;;;;;;;18.67;16.40;;;;;;;7.77;100.00;97073.50;5008551;28;20279;-70
2022/11/14 10:33:39;;;;;;;18.27;16.50;;;;;;;7.81;100.00;97064.25;5009048;28;20382;-68
2022/11/14 10:36:13;;;;;;;17.43;15.83;;;;;;;7.89;100.00;97062.56;5013873;28;20199;-70
2022/11/14 10:38:47;;;;;;;17.30;15.50;;;;;;;8.02;100.00;97068.13;4963803;28;20252;-69
2022/11/14 10:41:15;;;;;;;16.53;15.00;;;;;;;8.00;100.00;97066.66;4962414;28;20337;-70
2022/11/14 10:44:03;;;;;;;18.23;16.50;;;;;;;8.17;100.00;97076.16;5010323;28;20913;-69
2022/11/14 10:46:35;;;;;;;15.13;13.93;;;;;;;8.29;100.00;97079.25;5012011;28;20218;-69
2022/11/14 10:49:14;;;;;;;15.37;13.77;;;;;;;8.37;100.00;97081.03;5010236;28;20230;-69
2022/11/14 10:51:47;;;;;;;16.07;14.60;;;;;;;8.49;100.00;97071.75;5012313;28;20781;-69
2022/11/14 10:54:18;;;;;;;15.07;13.57;;;;;;;8.64;100.00;97077.13;5011056;28;20590;-69
2022/11/14 10:56:47;;;;;;;17.00;13.37;;;;;;;8.74;100.00;97071.63;4964050;28;20223;-70
2022/11/14 10:59:16;;;;;;;15.93;14.33;;;;;;;8.73;100.00;97072.63;5010173;28;20199;-70
2022/11/14 11:01:47;;;;;;;17.13;15.63;;;;;;;8.75;100.00;97067.97;5012546;28;20658;-67
2022/11/14 11:04:22;;;;;;;16.13;14.57;;;;;;;8.72;100.00;97067.50;5011734;28;20220;-71
2022/11/14 11:06:53;;;;;;;15.40;13.97;;;;;;;8.80;100.00;97070.91;5011858;28;20570;-70
2022/11/14 11:12:16;;;;;;;14.57;13.37;;;;;;;-148.82;100.00;60434.72;4967958;28;20366;-68
2022/11/14 11:14:44;;;;;;;13.93;12.70;;;;;;;-148.82;100.00;60434.72;5009407;28;20284;-69
2022/11/14 11:17:19;;;;;;;14.17;12.93;;;;;;;-148.82;100.00;60434.72;5011806;28;20425;-68
2022/11/14 11:19:48;;;;;;;14.83;13.37;;;;;;;-148.82;100.00;60434.72;5011477;28;21011;-67
2022/11/14 11:22:36;;;;;;;13.50;12.33;;;;;;;-148.82;100.00;60434.72;5011287;28;20203;-70
2022/11/14 11:25:23;;;;;;;13.07;12.07;;;;;;;-148.82;100.00;60434.72;5008677;28;20301;-69
2022/11/14 11:28:05;;;;;;;14.03;12.63;;;;;;;-148.82;100.00;60434.72;4963657;28;20199;-69
2022/11/14 11:30:34;;;;;;;12.63;11.60;;;;;;;-148.82;100.00;60434.72;5010699;28;20253;-69